Flight Track Log - Related Links

Times and Time Zones

All times are in EDT time to prevent confusion due to time zone crossing. See the KAP927 flight status page for this flight to view local times or setup timezone preferences in your user account.

Time Position Orientation Groundspeed Altitude Reporting Facility
EDT Latitude Longitude Course Direction KTS MPH feet Rate Location/Type
Fri 01:22:49 PM 42.3667 -71.0167 270° West 237 273 400  Level KA90
Fri 01:23:50 PM 42.3667 -71.0500 270° West 106 122 1,300 818 Climbing KA90
Fri 01:25:01 PM 42.3500 -71.1000 246° West 107 123 2,200 733 Climbing KA90
Fri 01:26:01 PM 42.3500 -71.1333 270° West 105 121 2,900 750 Climbing KA90
Fri 01:27:01 PM 42.3500 -71.1833 270° West 105 121 3,700 684 Climbing KA90
Fri 01:27:55 PM 42.3333 -71.2167 236° Southwest 103 119 4,200 579 Climbing KA90
Fri 01:28:55 PM 42.3333 -71.2500 270° West 110 127 4,800 600 Climbing KA90
Fri 01:29:55 PM 42.3333 -71.3000 270° West 115 132 5,400 600 Climbing KA90
Fri 01:30:55 PM 42.3333 -71.3333 270° West 113 130 6,000 550 Climbing KA90
Fri 01:31:55 PM 42.3167 -71.3833 246° West 111 128 6,500 600 Climbing KA90
Fri 01:32:55 PM 42.3167 -71.4167 270° West 114 131 7,200 600 Climbing KA90
Fri 01:33:55 PM 42.3167 -71.4667 270° West 114 131 7,700 495 Climbing KA90
Fri 01:34:32 PM 42.3047 -71.4914 237° Southwest 116 133 8,000 162 Climbing Boston Center
Fri 01:35:46 PM 42.2969 -71.5558 261° West 143 165 8,000  Level Boston Center
Fri 01:36:46 PM 42.2869 -71.6122 257° West 152 175 8,000  Level Boston Center
Fri 01:37:47 PM 42.2831 -71.6683 265° West 156 180 8,000  Level Boston Center
Fri 01:38:54 PM 42.2753 -71.7331 261° West 154 177 8,000  Level Boston Center
Fri 01:39:55 PM 42.2692 -71.7864 261° West 143 165 8,000  Level Boston Center
Fri 01:40:55 PM 42.2656 -71.8397 265° West 141 162 8,000  Level Boston Center
Fri 01:42:02 PM 42.2678 -71.8986 273° West 146 168 8,000  Level Boston Center
Fri 01:42:51 PM 42.2700 -71.9436 274° West 143 165 8,000  Level Boston Center
Fri 01:43:58 PM 42.2725 -72.0025 273° West 142 163 8,000 47 Level Boston Center
Fri 01:44:58 PM 42.2747 -72.0586 273° West 147 169 8,100  Climbing Boston Center
Fri 01:45:59 PM 42.2728 -72.1147 267° West 150 173 8,000 -49 Descending Boston Center
Fri 01:47:00 PM 42.2750 -72.1681 273° West 144 166 8,000  Level Boston Center
Fri 01:48:00 PM 42.2753 -72.2242 270° West 144 166 8,000  Level Boston Center
Fri 01:49:01 PM 42.2753 -72.2772 270° West 143 165 8,000  Level Boston Center
Fri 01:50:02 PM 42.2775 -72.3306 273° West 143 165 8,000  Level Boston Center
Fri 01:50:57 PM 42.2836 -72.3783 280° West 144 166 8,000  Level Boston Center
Fri 01:51:57 PM 42.3003 -72.4344 292° West 152 175 8,000  Level Boston Center
Fri 01:52:58 PM 42.3192 -72.4850 297° West 151 174 8,000  Level Boston Center
Fri 01:53:53 PM 42.3336 -72.5328 292° West 152 175 8,000  Level Boston Center
Fri 01:54:59 PM 42.3525 -72.5889 295° West 154 177 8,000  Level Boston Center
Fri 01:56:00 PM 42.3711 -72.6397 296° West 149 171 8,000  Level Boston Center
Fri 01:57:01 PM 42.3875 -72.6903 294° West 149 171 8,000  Level Boston Center
Fri 01:58:02 PM 42.4064 -72.7408 297° West 149 171 8,000  Level Boston Center
Fri 01:59:02 PM 42.4228 -72.7972 292° West 149 171 8,000  Level Boston Center
Fri 02:00:03 PM 42.4414 -72.8481 296° West 149 171 8,000  Level Boston Center
Fri 02:01:10 PM 42.4578 -72.9017 293° West 145 167 8,000  Level Boston Center
Fri 02:02:46 PM 42.4867 -72.9864 295° West 151 174 8,000  Level Boston Center
Fri 02:03:46 PM 42.5031 -73.0372 294° West 147 169 8,000  Level Boston Center
Fri 02:04:47 PM 42.5172 -73.0881 291° West 153 176 8,000  Level Boston Center
Fri 02:05:48 PM 42.5400 -73.1389 301° West 151 174 8,000 -198 Level Boston Center
Fri 02:06:48 PM 42.5564 -73.1925 293° West 164 189 7,600 -496 Descending Boston Center
Fri 02:07:49 PM 42.5747 -73.2578 291° West 176 203 7,000 -541 Descending Boston Center
Fri 02:08:50 PM 42.5950 -73.3200 294° West 181 208 6,500 -522 Descending Boston Center
Fri 02:09:44 PM 42.6133 -73.3767 294° West 174 200 6,000 -522 Descending Boston Center
Fri 02:10:45 PM 42.6317 -73.4361 293° West 176 203 5,500 -590 Descending Boston Center
Fri 02:11:46 PM 42.6539 -73.4958 297° West 178 205 4,800 -645 Descending Boston Center
Fri 02:12:46 PM 42.6742 -73.5583 294° West 181 208 4,200 -397 Descending Boston Center
Fri 02:13:47 PM 42.6922 -73.6181 292° West 173 199 4,000 -98 Descending Boston Center
Fri 02:14:48 PM 42.7189 -73.6667 307° West 159 183 4,000 50 Level Boston Center
Fri 02:15:48 PM 42.7667 -73.6817 347° North 169 194 4,100 -149 Climbing Boston Center
Fri 02:16:49 PM 42.8103 -73.6939 348° North 173 199 3,700 -492 Descending Boston Center
Fri 02:17:50 PM 42.8517 -73.7258 331° Northwest 189 217 3,100 -744 Descending Boston Center
Fri 02:18:50 PM 42.8383 -73.7878 254° West 179 206 2,200 -893 Descending Boston Center
Fri 02:19:51 PM 42.7964 -73.8097 201° Southwest 152 175 1,300 -885 Descending Boston Center
Fri 02:21:00 PM 42.7548 -73.8033 174° South  Level FlightAware
Fri 02:28:00 PM 42.7491 -73.8020 299° West  Level Estimated
Fri 02:29:00 PM 42.7491 -73.8020 299° West  Level Estimated
Fri 02:30:00 PM 42.7491 -73.8020 299° West  Level Estimated
Fri 02:31:00 PM 42.7491 -73.8020 299° West  Level Estimated

Login

Don't have an account? Register now (free) for customized features, flight alerts, and more!